createdAt,value
2019-01-21T00:04:05.114Z,101460.64
2019-01-21T00:09:08.776Z,101458.60
2019-01-21T00:14:12.205Z,101446.97
2019-01-21T00:19:15.642Z,101456.97
2019-01-21T00:24:19.242Z,101450.34
2019-01-21T00:29:22.672Z,101454.47
2019-01-21T00:34:26.103Z,101457.59
2019-01-21T00:39:29.607Z,101448.17
2019-01-21T00:44:33.194Z,101435.43
2019-01-21T00:49:36.631Z,101432.20
2019-01-21T00:54:40.068Z,101430.92
2019-01-21T00:59:43.512Z,101442.44
2019-01-21T01:04:46.966Z,101449.55
2019-01-21T01:09:50.405Z,101452.69
2019-01-21T01:14:53.837Z,101467.54
2019-01-21T01:19:57.279Z,101471.25
2019-01-21T01:25:01.032Z,101465.48
2019-01-21T01:30:07.984Z,101476.91
2019-01-21T01:35:13.239Z,101474.08
2019-01-21T01:40:17.804Z,101467.70
2019-01-21T01:45:22.967Z,101467.75
2019-01-21T01:50:26.771Z,101464.28
2019-01-21T01:55:30.341Z,101464.43
2019-01-21T02:00:34.472Z,101464.64
2019-01-21T02:05:37.929Z,101473.28
2019-01-21T02:10:41.384Z,101472.77
2019-01-21T02:15:44.822Z,101467.96
2019-01-21T02:20:50.642Z,101476.30
2019-01-21T02:25:54.132Z,101472.59
2019-01-21T02:31:18.505Z,101484.23
2019-01-21T02:36:36.593Z,101487.63
2019-01-21T02:41:41.074Z,101488.98
2019-01-21T02:46:53.354Z,101478.76
2019-01-21T02:52:22.342Z,101475.87
2019-01-21T02:57:51.240Z,101479.34
2019-01-21T03:03:01.049Z,101476.02
2019-01-21T03:08:16.477Z,101477.69
2019-01-21T03:13:25.840Z,101471.34
2019-01-21T03:18:38.133Z,101472.50
2019-01-21T03:23:50.429Z,101477.17
2019-01-21T03:29:22.447Z,101466.73
2019-01-21T03:34:40.892Z,101463.32
2019-01-21T03:39:56.238Z,101465.97
2019-01-21T03:45:31.241Z,101465.68
2019-01-21T03:50:37.754Z,101463.53
2019-01-21T03:55:41.315Z,101468.78
2019-01-21T04:00:51.017Z,101477.78
2019-01-21T04:06:06.369Z,101473.45
2019-01-21T04:11:18.364Z,101476.89
2019-01-21T04:16:47.305Z,101479.41
2019-01-21T04:22:26.592Z,101475.42
2019-01-21T04:27:44.713Z,101471.95
2019-01-21T04:32:56.725Z,101474.41
2019-01-21T04:38:22.520Z,101471.34
2019-01-21T04:43:31.670Z,101466.16
2019-01-21T04:49:03.562Z,101462.53
2019-01-21T04:54:15.747Z,101476.72
2019-01-21T04:59:41.479Z,101470.94
2019-01-21T05:05:02.798Z,101466.63
2019-01-21T05:10:12.203Z,101468.45
2019-01-21T05:15:21.188Z,101463.16
2019-01-21T05:20:27.669Z,101460.66
2019-01-21T05:25:36.915Z,101445.63
2019-01-21T05:30:49.086Z,101456.20
2019-01-21T05:36:20.764Z,101442.89
2019-01-21T05:41:35.421Z,101446.84
2019-01-21T05:47:14.992Z,101439.33
2019-01-21T05:52:37.824Z,101438.92
2019-01-21T05:58:03.731Z,101441.36
2019-01-21T06:03:35.705Z,101443.27
2019-01-21T06:08:47.866Z,101447.36
2019-01-21T06:14:06.090Z,101445.03
2019-01-21T06:19:12.562Z,101443.19
2019-01-21T06:24:24.971Z,101457.28
2019-01-21T06:29:34.129Z,101457.02
2019-01-21T06:34:43.335Z,101456.71
2019-01-21T06:39:58.421Z,101461.48
2019-01-21T06:45:25.923Z,101463.30
2019-01-21T06:50:38.168Z,101474.27
2019-01-21T06:55:56.252Z,101475.67
2019-01-21T07:01:36.893Z,101488.01
2019-01-21T07:07:11.693Z,101475.27
2019-01-21T07:12:39.037Z,101489.42
2019-01-21T07:17:54.460Z,101497.59
2019-01-21T07:23:15.656Z,101495.92
2019-01-21T07:28:41.316Z,101502.27
2019-01-21T07:33:56.287Z,101500.77
2019-01-21T07:39:24.887Z,101510.70
2019-01-21T07:44:43.150Z,101520.38
2019-01-21T07:50:10.135Z,101517.44
2019-01-21T07:55:16.621Z,101516.84
2019-01-21T08:00:42.535Z,101523.36
2019-01-21T08:06:03.118Z,101527.58
2019-01-21T08:11:23.969Z,101526.45
2019-01-21T08:16:33.118Z,101539.73
2019-01-21T08:22:06.333Z,101545.50
2019-01-21T08:27:15.475Z,101546.23
2019-01-21T08:32:24.870Z,101550.53
2019-01-21T08:37:37.265Z,101555.31
2019-01-21T08:43:01.594Z,101552.69
2019-01-21T08:48:08.075Z,101558.72
2019-01-21T08:53:29.206Z,101543.78
2019-01-21T08:58:53.423Z,101543.95
2019-01-21T09:04:02.813Z,101536.47
2019-01-21T09:09:24.151Z,101523.87
2019-01-21T09:14:30.634Z,101530.56
2019-01-21T09:19:45.837Z,101532.03
2019-01-21T09:25:03.956Z,101535.11
2019-01-21T09:30:13.351Z,101523.17
2019-01-21T09:35:31.485Z,101537.21
2019-01-21T09:40:49.599Z,101545.26
2019-01-21T09:45:58.735Z,101540.17
2019-01-21T09:51:04.672Z,101530.28
2019-01-21T09:56:08.188Z,101527.14
2019-01-21T10:01:11.922Z,101511.09
2019-01-21T10:06:16.484Z,101514.84
2019-01-21T10:11:37.696Z,101510.97
2019-01-21T10:16:46.839Z,101505.27
2019-01-21T10:22:13.852Z,101505.22
2019-01-21T10:27:53.409Z,101498.46
2019-01-21T10:33:17.037Z,101475.16
2019-01-21T10:38:26.158Z,101474.42
2019-01-21T10:43:35.087Z,101482.03
2019-01-21T10:48:53.558Z,101489.70
2019-01-21T10:54:02.729Z,101477.89
2019-01-21T10:59:09.205Z,101476.31
2019-01-21T11:04:36.546Z,101480.34
2019-01-21T11:09:45.771Z,101464.16
2019-01-21T11:14:58.001Z,101461.41
2019-01-21T11:20:10.361Z,101460.94
2019-01-21T11:25:42.310Z,101460.34
2019-01-21T11:31:00.679Z,101453.99
2019-01-21T11:36:39.598Z,101448.13
2019-01-21T11:42:00.294Z,101443.77
2019-01-21T11:47:06.769Z,101440.73
2019-01-21T11:52:24.987Z,101444.99
2019-01-21T11:57:34.239Z,101428.50
2019-01-21T12:02:43.806Z,101415.95
2019-01-21T12:08:04.951Z,101406.09
2019-01-21T12:13:34.558Z,101398.70
2019-01-21T12:18:49.994Z,101396.63
2019-01-21T12:24:02.179Z,101390.58
2019-01-21T12:29:14.206Z,101385.77
2019-01-21T12:34:39.945Z,101387.36
2019-01-21T12:40:01.027Z,101382.97
2019-01-21T12:45:16.298Z,101370.11
2019-01-21T12:50:52.188Z,101355.47
2019-01-21T12:56:31.805Z,101351.30
2019-01-21T13:01:44.233Z,101336.63
2019-01-21T13:06:59.507Z,101333.85
2019-01-21T13:12:08.667Z,101333.41
2019-01-21T13:17:17.911Z,101333.59
2019-01-21T13:22:33.316Z,101326.26
2019-01-21T13:28:03.556Z,101327.92
2019-01-21T13:33:24.421Z,101317.50
2019-01-21T13:38:36.506Z,101320.27
2019-01-21T13:43:43.052Z,101316.93
2019-01-21T13:48:49.538Z,101311.67
2019-01-21T13:54:13.677Z,101306.94
2019-01-21T13:59:42.310Z,101304.20
2019-01-21T14:04:54.917Z,101299.02
2019-01-21T14:10:10.235Z,101299.26
2019-01-21T14:15:25.235Z,101298.03
2019-01-21T14:20:31.768Z,101279.98
2019-01-21T14:25:42.011Z,101278.48
2019-01-21T14:30:57.531Z,101267.75
2019-01-21T14:36:25.037Z,101271.97
2019-01-21T14:41:34.174Z,101265.55
2019-01-21T14:47:01.093Z,101240.66
2019-01-21T14:52:24.089Z,101239.23
2019-01-21T14:57:36.395Z,101226.44
2019-01-21T15:02:59.073Z,101216.46
2019-01-21T15:08:05.563Z,101216.22
2019-01-21T15:13:11.996Z,101210.40
2019-01-21T15:18:36.385Z,101213.41
2019-01-21T15:23:45.982Z,101205.12
2019-01-21T15:28:55.063Z,101217.80
2019-01-21T15:34:01.674Z,101215.94
2019-01-21T15:39:10.750Z,101211.27
2019-01-21T15:44:17.299Z,101208.96
2019-01-21T15:49:23.760Z,101204.34
2019-01-21T15:54:52.450Z,101213.83
2019-01-21T16:00:17.054Z,101216.47
2019-01-21T16:05:29.613Z,101221.86
2019-01-21T16:10:55.665Z,101224.28
2019-01-21T16:16:14.003Z,101229.97
2019-01-21T16:21:45.858Z,101209.08
2019-01-21T16:27:00.966Z,101219.37
2019-01-21T16:32:04.493Z,101208.33
2019-01-21T16:37:20.031Z,101205.11
2019-01-21T16:42:22.666Z,101207.94
2019-01-21T16:47:26.643Z,101206.78
2019-01-21T16:52:30.175Z,101203.44
2019-01-21T16:57:33.621Z,101197.20
2019-01-21T17:02:37.165Z,101200.52
2019-01-21T17:07:40.736Z,101196.21
2019-01-21T17:12:44.328Z,101193.06
2019-01-21T17:17:47.776Z,101191.76
2019-01-21T17:22:51.332Z,101186.75
2019-01-21T17:27:54.762Z,101187.49
2019-01-21T17:32:58.202Z,101179.96
2019-01-21T17:38:01.668Z,101179.17
2019-01-21T17:43:05.445Z,101174.96
2019-01-21T17:48:08.907Z,101174.41
2019-01-21T17:53:12.420Z,101183.19
2019-01-21T17:58:16.091Z,101173.55
2019-01-21T18:03:19.511Z,101175.20
2019-01-21T18:08:22.952Z,101164.53
2019-01-21T18:13:26.380Z,101158.09
2019-01-21T18:18:29.891Z,101165.66
2019-01-21T18:23:33.335Z,101161.37
2019-01-21T18:28:36.805Z,101154.17
2019-01-21T18:33:40.306Z,101150.92
2019-01-21T18:38:43.879Z,101145.58
2019-01-21T18:43:47.289Z,101140.78
2019-01-21T18:48:51.550Z,101136.83
2019-01-21T18:53:55.061Z,101141.19
2019-01-21T18:58:58.652Z,101131.23
2019-01-21T19:04:02.116Z,101130.53
2019-01-21T19:09:07.597Z,101124.06
2019-01-21T19:14:11.068Z,101128.50
2019-01-21T19:19:14.509Z,101118.56
2019-01-21T19:24:17.943Z,101125.55
2019-01-21T19:29:21.366Z,101123.25
2019-01-21T19:34:24.806Z,101123.88
2019-01-21T19:39:28.243Z,101113.88
2019-01-21T19:44:32.570Z,101113.22
2019-01-21T19:49:35.997Z,101106.53
2019-01-21T19:54:39.436Z,101102.52
2019-01-21T19:59:42.913Z,101101.17
2019-01-21T20:04:46.352Z,101101.61
2019-01-21T20:09:49.775Z,101101.78
2019-01-21T20:14:53.308Z,101094.20
2019-01-21T20:19:56.742Z,101099.62
2019-01-21T20:25:00.231Z,101100.19
2019-01-21T20:30:05.547Z,101092.55
2019-01-21T20:35:09.126Z,101087.38
2019-01-21T20:40:18.701Z,101079.49
2019-01-21T20:45:23.274Z,101092.55
2019-01-21T20:50:31.594Z,101095.86
2019-01-21T20:55:35.032Z,101093.82
2019-01-21T21:00:38.477Z,101093.47
2019-01-21T21:05:41.970Z,101084.67
2019-01-21T21:10:45.475Z,101087.63
2019-01-21T21:15:48.899Z,101085.63
2019-01-21T21:20:52.335Z,101088.83
2019-01-21T21:25:55.766Z,101081.87
2019-01-21T21:30:59.206Z,101073.56
2019-01-21T21:36:02.646Z,101075.02
2019-01-21T21:41:06.066Z,101077.92
2019-01-21T21:46:09.496Z,101073.25
2019-01-21T21:51:12.920Z,101064.93
2019-01-21T21:56:16.350Z,101060.87
2019-01-21T22:01:23.929Z,101045.89
2019-01-21T22:06:24.948Z,101040.41
2019-01-21T22:11:28.370Z,101041.28
2019-01-21T22:16:32.178Z,101040.98
2019-01-21T22:21:35.617Z,101033.47
2019-01-21T22:26:39.036Z,101026.91
2019-01-21T22:31:42.479Z,101019.61
2019-01-21T22:36:45.914Z,101013.48
2019-01-21T22:41:49.352Z,101008.80
2019-01-21T22:46:52.872Z,101002.62
2019-01-21T22:51:56.291Z,100997.08
2019-01-21T22:56:59.787Z,100987.05
2019-01-21T23:02:03.333Z,100985.20
2019-01-21T23:07:06.903Z,100987.90
2019-01-21T23:12:10.321Z,100978.45
2019-01-21T23:17:13.779Z,100976.30
2019-01-21T23:22:17.391Z,100969.59
2019-01-21T23:27:20.813Z,100964.29
2019-01-21T23:32:24.271Z,100965.63
2019-01-21T23:37:27.702Z,100956.11
2019-01-21T23:42:31.141Z,100947.55
2019-01-21T23:47:34.634Z,100938.51
2019-01-21T23:52:38.067Z,100934.34
2019-01-21T23:57:41.509Z,100927.80
